| time (UTC) | temp F | wind direction | speed knots | gust knots | rain 1hr in | rain 24hr in | rain mn in | humidity % | barometer mb |
| 20260504050112 | 53 | 202 | 0.0 | 1.7 | 0.00 | 0.00 | 0.00 | 52 | 1002.2 |
| 20260504044552 | 53 | 212 | 0.0 | 0.0 | 0.00 | 0.00 | 0.00 | 51 | 1002.4 |
| 20260504043105 | 54 | 212 | 0.0 | 0.0 | 0.00 | 0.00 | 0.00 | 50 | 1002.6 |
| 20260504041549 | 54 | 212 | 0.0 | 0.0 | 0.00 | 0.00 | 0.00 | 49 | 1002.7 |
| 20260504040047 | 54 | 212 | 0.0 | 0.0 | 0.00 | 0.00 | 0.00 | 49 | 1003.0 |
| 20260504034544 | 55 | 212 | 0.0 | 0.0 | 0.00 | 0.00 | 0.00 | 48 | 1003.3 |
| 20260504033043 | 55 | 213 | 0.0 | 0.9 | 0.00 | 0.00 | 0.00 | 47 | 1003.4 |
| 20260504031546 | 55 | 219 | 0.0 | 0.9 | 0.00 | 0.00 | 0.00 | 47 | 1003.7 |
| 20260504030043 | 56 | 213 | 0.0 | 1.7 | 0.00 | 0.00 | 0.00 | 45 | 1003.7 |
| 20260504024540 | 58 | 277 | 1.7 | 2.6 | 0.00 | 0.00 | 0.00 | 42 | 1003.8 |
| 20260504023040 | 59 | 287 | 0.9 | 1.7 | 0.00 | 0.00 | 0.00 | 40 | 1003.8 |
| 20260504021539 | 61 | 297 | 0.0 | 0.9 | 0.00 | 0.00 | 0.00 | 37 | 1003.8 |
| 20260504020038 | 62 | 297 | 0.0 | 0.9 | 0.00 | 0.00 | 0.00 | 34 | 1003.6 |
| 20260504014550 | 62 | 297 | 0.9 | 2.6 | 0.00 | 0.00 | 0.00 | 34 | 1003.7 |
| 20260504013041 | 63 | 297 | 0.9 | 2.6 | 0.00 | 0.00 | 0.00 | 34 | 1003.7 |
| 20260504011539 | 65 | 298 | 0.0 | 2.6 | 0.00 | 0.00 | 0.00 | 32 | 1003.7 |
| 20260504010036 | 66 | 294 | 1.7 | 2.6 | 0.00 | 0.00 | 0.00 | 30 | 1003.7 |
| 20260504004536 | 67 | 304 | 0.0 | 1.7 | 0.00 | 0.00 | 0.00 | 30 | 1003.6 |
| 20260504003037 | 68 | 308 | 1.7 | 6.1 | 0.00 | 0.00 | 0.00 | 29 | 1003.7 |
| 20260504001542 | 69 | 319 | 2.6 | 7.8 | 0.00 | 0.00 | 0.00 | 29 | 1003.8 |
| 20260504000043 | 69 | 306 | 2.6 | 7.8 | 0.00 | 0.00 | 0.00 | 28 | 1003.7 |
| 20260503234532 | 70 | 350 | 2.6 | 10.4 | 0.00 | 0.00 | 0.00 | 27 | 1003.7 |
| 20260503233030 | 70 | 342 | 4.3 | 8.7 | 0.00 | 0.00 | 0.00 | 26 | 1003.8 |
| 20260503231530 | 71 | 322 | 3.5 | 9.6 | 0.00 | 0.00 | 0.00 | 27 | 1003.9 |
| 20260503230028 | 71 | 302 | 6.1 | 12.2 | 0.00 | 0.00 | 0.00 | 26 | 1004.0 |
| 20260503224535 | 72 | 347 | 5.2 | 8.7 | 0.00 | 0.00 | 0.00 | 27 | 1003.9 |
| 20260503223026 | 72 | 314 | 4.3 | 11.3 | 0.00 | 0.00 | 0.00 | 28 | 1003.7 |
| 20260503221526 | 72 | 309 | 7.8 | 11.3 | 0.00 | 0.00 | 0.00 | 26 | 1003.9 |
| 20260503220027 | 73 | 304 | 5.2 | 9.6 | 0.00 | 0.00 | 0.00 | 30 | 1003.6 |
| 20260503214530 | 72 | 284 | 2.6 | 10.4 | 0.00 | 0.00 | 0.00 | 31 | 1003.8 |
| 20260503213025 | 72 | 311 | 7.0 | 12.2 | 0.00 | 0.00 | 0.00 | 28 | 1003.8 |
| 20260503211520 | 72 | 272 | 5.2 | 10.4 | 0.00 | 0.00 | 0.00 | 30 | 1003.8 |
| 20260503210038 | 72 | 271 | 3.5 | 8.7 | 0.00 | 0.00 | 0.00 | 33 | 1004.0 |
| 20260503204517 | 73 | 295 | 7.0 | 10.4 | 0.00 | 0.00 | 0.00 | 33 | 1004.2 |
| 20260503203018 | 71 | 290 | 6.1 | 11.3 | 0.00 | 0.00 | 0.00 | 33 | 1004.4 |
| 20260503201513 | 72 | 337 | 4.3 | 12.2 | 0.00 | 0.00 | 0.00 | 32 | 1004.5 |
| 20260503200015 | 72 | 309 | 8.7 | 13.9 | 0.00 | 0.00 | 0.00 | 31 | 1004.4 |
| 20260503194510 | 73 | 355 | 1.7 | 12.2 | 0.00 | 0.00 | 0.00 | 31 | 1004.4 |
| 20260503193010 | 72 | 333 | 0.9 | 11.3 | 0.00 | 0.00 | 0.00 | 31 | 1004.7 |
| 20260503191505 | 71 | 308 | 8.7 | 14.8 | 0.00 | 0.00 | 0.00 | 30 | 1004.6 |
| 20260503190002 | 71 | 313 | 7.8 | 13.0 | 0.00 | 0.00 | 0.00 | 33 | 1004.7 |
| 20260503184502 | 71 | 323 | 7.8 | 13.0 | 0.00 | 0.00 | 0.00 | 33 | 1004.6 |
| 20260503183107 | 71 | 311 | 2.6 | 8.7 | 0.00 | 0.00 | 0.00 | 36 | 1004.8 |
| 20260503181558 | 70 | 316 | 5.2 | 11.3 | 0.00 | 0.00 | 0.00 | 37 | 1005.0 |
| 20260503180107 | 70 | 346 | 5.2 | 11.3 | 0.00 | 0.00 | 0.00 | 38 | 1005.1 |
| 20260503174554 | 69 | 327 | 2.6 | 12.2 | 0.00 | 0.00 | 0.00 | 38 | 1005.1 |
| 20260503173142 | 70 | 26 | 3.5 | 7.8 | 0.00 | 0.00 | 0.00 | 41 | 1005.2 |
| 20260503171549 | 67 | 302 | 5.2 | 11.3 | 0.00 | 0.00 | 0.00 | 41 | 1005.3 |
| 20260503100114 | 53 | 195 | 0.9 | 3.5 | 0.00 | 0.00 | 0.00 | 54 | 1005.6 |
| 20260503090104 | 55 | 191 | 0.9 | 4.3 | 0.00 | 0.00 | 0.00 | 51 | 1006.8 |
| 20260503081556 | 54 | 190 | 4.3 | 8.7 | 0.00 | 0.00 | 0.00 | 59 | 1007.5 |
| 20260503071544 | 54 | 209 | 0.9 | 1.7 | 0.00 | 0.00 | 0.00 | 52 | 1008.2 |